Terminal Aerodrome Forecast
Issued by NWS

Current Version | Previous Version | Text Only | Print | Product List | Glossary On
Versions: 1 2 3 4 5 6 7 8 9 10 11 12 13 14 15
000
FTUS44 KMAF 052320
TAFFST
TAF
KFST 052320Z 0600/0624 15016G22KT P6SM SCT090 BKN250
     FM060200 16014KT P6SM FEW050 OVC200
     FM061200 17010KT P6SM OVC250
     FM061600 17016G26KT P6SM SCT040 OVC250=

USA.gov is the U.S. government's official web portal to all federal, state and local government web resources and services.